Aviation Digital Data Service (ADDS)

Output produced by METARs form (0026 UTC 17 December 2017)
found at http://www.aviationweather.gov/adds/metars/
 
KPIT 162351Z 22003KT 10SM FEW250 03/M03 A3009 RMK AO2 SLP207 T00331033 10067 20033 53025 $
KPIT 162251Z 23003KT 10SM FEW250 05/M03 A3006 RMK AO2 SLP195 T00501033 $
KPIT 162151Z 23005KT 10SM FEW100 FEW250 06/M03 A3003 RMK AO2 SLP186 T00611033 $
KPIT 162051Z 23006KT 10SM FEW090 FEW220 07/M03 A3001 RMK AO2 SLP179 T00671028 53000 $
KPIT 161951Z 22010KT 10SM FEW090 SCT200 06/M03 A3000 RMK AO2 SLP175 T00561033 $
KPIT 161851Z 23011G19KT 10SM SCT095 SCT180 04/M03 A3000 RMK AO2 SLP177 T00441033 $
KPIT 161751Z 23012KT 10SM BKN090 BKN180 03/M03 A3001 RMK AO2 SLP181 60000 T00331033 10033 21011 58004 $
KPIT 161651Z 24009KT 10SM OVC085 03/M03 A3002 RMK AO2 SLP184 T00281033 $
KPIT 161551Z 24009KT 10SM BKN085 OVC150 02/M04 A3003 RMK AO2 SLP189 T00221044 $
KPIT 161451Z 23009KT 10SM FEW055 OVC080 01/M05 A3002 RMK AO2 SNE24 SLP186 P0000 60000 T00111050 51005 $
KPIT 161351Z 21008KT 10SM -SN BKN060 OVC080 00/M05 A3001 RMK AO2 SLP184 P0000 T00001050 $
KPIT 161251Z 23008KT 7SM -SN FEW032 BKN055 OVC085 M01/M04 A3002 RMK AO2 SLP187 P0000 T10061039 $
KPIT 161151Z 22011KT 5SM -SN FEW034 OVC048 M01/M04 A3001 RMK AO2 SLP183 P0000 60000 T10111044 11006 21017 53003 $
KPIT 161116Z 23009KT 2 1/2SM -SN BKN032 OVC048 M01/M04 A3001 RMK AO2 P0000 T10111044 $
KPIT 161051Z 22010KT 2 1/2SM -SN OVC027 M01/M05 A3000 RMK AO2 SLP181 VIS 2V3 P0000 T10111050 $
KPIT 161034Z 23008G17KT 2 1/2SM -SN BKN025 OVC043 M01/M06 A3000 RMK AO2 P0000 T10111056 $
KPIT 160951Z 23009G18KT 9SM -SN SCT023 OVC045 M01/M07 A2999 RMK AO2 SNB10 SLP176 P0000 T10061067 $
KPIT 160851Z 23012G20KT 10SM OVC065 M01/M08 A3000 RMK AO2 SLP178 T10111078 51005 $
KPIT 160751Z 23012G19KT 10SM FEW060 OVC100 M01/M08 A2999 RMK AO2 SLP178 T10111078 $
KPIT 160651Z 24012G19KT 10SM BKN060 OVC095 M01/M08 A2999 RMK AO2 SLP175 T10111078 $
KPIT 160551Z 24012KT 10SM SCT043 OVC055 M02/M08 A2998 RMK AO2 SNB25E50 SLP173 P0000 60000 T10171078 11017 21028 50004 $
KPIT 160451Z 22011KT 10SM OVC055 M02/M08 A2998 RMK AO2 SLP176 T10171083 410171100 $
KPIT 160351Z 27011KT 10SM OVC050 M02/M09 A2999 RMK AO2 SLP177 T10221089 $
KPIT 160251Z 27012KT 10SM FEW024 BKN048 OVC060 M02/M08 A2996 RMK AO2 SNE49 SLP171 P0000 60000 T10221078 51021 $
KPIT 160243Z 27013G24KT 9SM -SN SCT024 BKN048 OVC060 M02/M08 A2996 RMK AO2 P0000 T10221078 $
KPIT 160151Z 27012G17KT 7SM -SN FEW013 BKN026 OVC048 M02/M06 A2994 RMK AO2 SLP164 P0000 T10221061 $
KPIT 160134Z 26007KT 1/2SM R28R/P6000FT -SN OVC019 M02/M06 A2994 RMK AO2 SFC VIS 1 1/2 P0000 T10221056
KPIT 160123Z 27011G17KT 6SM -SN FEW018 BKN028 OVC050 M02/M06 A2993 RMK AO2 P0000 T10221061
KPIT 160051Z 25012G22KT 8SM -SN SCT022 BKN043 OVC060 M02/M07 A2993 RMK AO2 SLP160 P0000 T10221067